Terminal Aerodrome Forecast
Issued by NWS

Home | Current Version | Previous Version | Graphics & Text | Print | Product List | Glossary On
Versions: 1 2 3 4 5 6 7 8 9 10 11 12 13 14 15 16 17 18 19 20 21
000
FTUS43 KABR 132226 AAA
TAFMBG
TAF AMD
KMBG 132226Z 1322/1418 16014KT P6SM OVC029
     FM140000 15009KT P6SM OVC025
     FM140800 VRB03KT P6SM BKN040
     FM141600 32012KT P6SM BKN060=

USA.gov is the U.S. government's official web portal to all federal, state and local government web resources and services.